createdAt,value
2019-04-30T01:35:23.841Z,97313.61
2019-04-30T01:37:48.816Z,97309.81
2019-04-30T01:40:15.446Z,97311.91
2019-04-30T01:42:47.944Z,97311.59
2019-04-30T01:45:10.408Z,97305.08
2019-04-30T01:47:39.603Z,97307.98
2019-04-30T01:50:05.380Z,97299.02
2019-04-30T01:55:25.909Z,97309.66
2019-04-30T01:57:54.270Z,97306.40
2019-04-30T02:00:33.286Z,97306.41
2019-04-30T02:03:00.758Z,97305.89
2019-04-30T02:05:28.763Z,97308.58
2019-04-30T02:07:55.775Z,97312.73
2019-04-30T02:10:23.226Z,97311.37
2019-04-30T02:12:50.834Z,97302.76
2019-04-30T02:15:19.220Z,97308.45
2019-04-30T02:17:45.808Z,97305.13
2019-04-30T02:20:14.117Z,97307.81
2019-04-30T02:22:41.555Z,97306.44
2019-04-30T02:25:09.629Z,97310.55
2019-04-30T02:27:36.586Z,97305.96
2019-04-30T02:30:04.164Z,97301.30
2019-04-30T02:32:31.598Z,97310.75
2019-04-30T02:35:09.593Z,97319.67
2019-04-30T02:37:36.895Z,97305.22
2019-04-30T02:40:05.240Z,97312.08
2019-04-30T02:42:32.723Z,97314.33
2019-04-30T02:45:03.845Z,97310.97
2019-04-30T02:47:30.081Z,97316.55
2019-04-30T02:50:10.066Z,97312.40
2019-04-30T02:52:22.617Z,97312.70
2019-04-30T02:54:50.167Z,97317.52
2019-04-30T02:57:23.008Z,97322.33
2019-04-30T02:59:50.787Z,97317.17
2019-04-30T03:02:19.585Z,97312.78
2019-04-30T03:04:45.715Z,97320.60
2019-04-30T03:07:13.162Z,97319.30
2019-04-30T03:09:40.615Z,97322.19
2019-04-30T03:12:08.699Z,97311.11
2019-04-30T03:14:35.549Z,97312.06
2019-04-30T03:17:20.697Z,97315.69
2019-04-30T03:19:45.367Z,97310.03
2019-04-30T03:22:24.549Z,97310.93
2019-04-30T03:24:52.009Z,97307.41
2019-04-30T03:27:20.703Z,97298.22
2019-04-30T03:29:50.005Z,97304.23
2019-04-30T03:32:14.723Z,97301.30
2019-04-30T03:34:42.773Z,97302.84
2019-04-30T03:37:10.095Z,97295.77
2019-04-30T03:39:39.684Z,97298.23
2019-04-30T03:42:04.846Z,97304.06
2019-04-30T03:44:32.693Z,97306.79
2019-04-30T03:46:59.955Z,97300.97
2019-04-30T03:49:29.658Z,97291.70
2019-04-30T03:51:55.023Z,97298.34
2019-04-30T03:54:22.583Z,97295.73
2019-04-30T03:56:50.449Z,97295.09
2019-04-30T03:59:19.877Z,97297.04
2019-04-30T04:02:02.684Z,97296.86
2019-04-30T04:04:31.155Z,97291.87
2019-04-30T04:07:11.230Z,97303.25
2019-04-30T04:09:41.357Z,97301.47
2019-04-30T04:12:14.342Z,97298.49
2019-04-30T04:14:41.787Z,97303.89
2019-04-30T04:17:09.899Z,97301.27
2019-04-30T04:19:39.186Z,97308.47
2019-04-30T04:22:04.304Z,97306.98
2019-04-30T04:24:31.643Z,97309.89
2019-04-30T04:26:59.645Z,97302.64
2019-04-30T04:29:29.649Z,97306.38
2019-04-30T04:31:54.150Z,97303.55
2019-04-30T04:34:21.604Z,97306.23
2019-04-30T04:36:50.474Z,97308.00
2019-04-30T04:39:19.889Z,97301.84
2019-04-30T04:41:44.475Z,97299.00
2019-04-30T04:44:13.001Z,97296.20
2019-04-30T04:46:40.165Z,97306.34
2019-04-30T04:49:08.954Z,97296.56
2019-04-30T04:51:38.653Z,97299.70
2019-04-30T04:54:03.326Z,97307.06
2019-04-30T04:56:30.398Z,97305.52
2019-04-30T04:58:56.948Z,97306.39
2019-04-30T05:01:24.450Z,97319.58
2019-04-30T05:03:52.038Z,97309.98
2019-04-30T05:06:22.005Z,97313.09
2019-04-30T05:08:47.125Z,97311.47
2019-04-30T05:11:14.564Z,97304.87
2019-04-30T05:13:41.998Z,97307.51
2019-04-30T05:16:09.510Z,97298.02
2019-04-30T05:18:38.971Z,97299.86
2019-04-30T05:21:04.494Z,97294.45
2019-04-30T05:23:31.947Z,97300.64
2019-04-30T05:25:59.396Z,97298.88
2019-04-30T05:28:26.385Z,97294.14
2019-04-30T05:30:53.841Z,97290.86
2019-04-30T05:33:21.300Z,97294.72
2019-04-30T05:35:49.573Z,97293.90
2019-04-30T05:38:16.273Z,97288.66
2019-04-30T05:40:43.715Z,97288.73
2019-04-30T05:43:11.490Z,97290.89
2019-04-30T05:45:39.069Z,97285.36
2019-04-30T05:48:06.311Z,97292.42
2019-04-30T05:50:33.766Z,97289.52
2019-04-30T05:53:01.254Z,97294.91
2019-04-30T05:55:29.445Z,97300.75
2019-04-30T05:57:56.623Z,97299.91
2019-04-30T06:00:23.725Z,97297.54
2019-04-30T06:02:51.215Z,97295.34
2019-04-30T06:05:18.975Z,97299.67
2019-04-30T06:07:46.332Z,97295.05
2019-04-30T06:10:16.200Z,97300.22
2019-04-30T06:12:49.325Z,97299.70
2019-04-30T06:15:25.803Z,97301.73
2019-04-30T06:18:00.224Z,97306.23
2019-04-30T06:20:21.697Z,97307.70
2019-04-30T06:22:51.884Z,97304.53
2019-04-30T06:25:30.575Z,97300.04
2019-04-30T06:27:44.298Z,97298.72
2019-04-30T06:30:12.101Z,97294.57
2019-04-30T06:32:39.612Z,97293.28
2019-04-30T06:35:09.073Z,97292.55
2019-04-30T06:37:34.616Z,97293.53
2019-04-30T06:40:02.087Z,97287.39
2019-04-30T06:42:29.646Z,97285.98
2019-04-30T06:44:59.039Z,97290.02
2019-04-30T06:47:32.842Z,97284.69
2019-04-30T06:49:52.246Z,97285.62
2019-04-30T06:52:22.997Z,97281.16
2019-04-30T06:54:49.638Z,97274.97
2019-04-30T06:57:15.104Z,97271.55
2019-04-30T06:59:42.570Z,97272.14
2019-04-30T07:02:10.029Z,97276.14
2019-04-30T07:04:37.552Z,97267.60
2019-04-30T07:07:05.009Z,97270.84
2019-04-30T07:09:51.445Z,97267.45
2019-04-30T07:12:05.441Z,97269.27
2019-04-30T07:14:40.143Z,97272.94
2019-04-30T07:17:05.380Z,97277.74
2019-04-30T07:19:50.296Z,97275.48
2019-04-30T07:22:00.483Z,97270.44
2019-04-30T07:24:29.630Z,97272.20
2019-04-30T07:26:59.727Z,97271.37
2019-04-30T07:29:22.900Z,97276.53
2019-04-30T07:31:51.674Z,97269.71
2019-04-30T07:34:19.613Z,97273.80
2019-04-30T07:36:51.083Z,97275.76
2019-04-30T07:39:12.955Z,97269.44
2019-04-30T07:41:40.475Z,97272.77
2019-04-30T07:44:10.836Z,97262.86
2019-04-30T07:46:41.165Z,97263.89
2019-04-30T07:49:03.130Z,97265.75
2019-04-30T07:51:33.428Z,97271.22
2019-04-30T07:53:59.020Z,97268.82
2019-04-30T07:56:29.319Z,97268.29
2019-04-30T07:58:53.251Z,97269.19
2019-04-30T08:01:20.719Z,97260.14
2019-04-30T08:03:49.987Z,97268.05
2019-04-30T08:06:15.881Z,97260.88
2019-04-30T08:08:43.730Z,97260.62
2019-04-30T08:11:23.150Z,97262.05
2019-04-30T08:13:40.730Z,97262.02
2019-04-30T08:16:06.594Z,97257.84
2019-04-30T08:18:34.446Z,97265.16
2019-04-30T08:21:02.064Z,97262.57
2019-04-30T08:23:34.889Z,97265.42
2019-04-30T08:25:58.722Z,97270.27
2019-04-30T08:28:24.894Z,97271.94
2019-04-30T08:30:52.381Z,97263.27
2019-04-30T08:33:19.851Z,97270.38
2019-04-30T08:35:49.712Z,97260.32
2019-04-30T08:38:15.023Z,97260.80
2019-04-30T08:40:53.384Z,97261.12
2019-04-30T08:43:10.171Z,97268.98
2019-04-30T08:45:38.583Z,97272.89
2019-04-30T08:48:05.151Z,97267.11
2019-04-30T08:50:32.872Z,97275.30
2019-04-30T08:53:00.520Z,97265.57
2019-04-30T08:55:30.275Z,97270.92
2019-04-30T08:58:08.932Z,97271.31
2019-04-30T09:00:22.855Z,97264.11
2019-04-30T09:02:50.401Z,97263.57
2019-04-30T09:05:18.678Z,97268.37
2019-04-30T09:07:46.118Z,97270.52
2019-04-30T09:10:13.570Z,97267.95
2019-04-30T09:12:41.007Z,97271.80
2019-04-30T09:15:09.177Z,97271.72
2019-04-30T09:17:36.155Z,97270.45
2019-04-30T09:20:06.319Z,97271.87
2019-04-30T09:22:33.818Z,97282.80
2019-04-30T09:25:01.271Z,97280.68
2019-04-30T09:27:29.643Z,97266.17
2019-04-30T09:29:56.342Z,97266.79
2019-04-30T09:32:23.806Z,97268.59
2019-04-30T09:34:51.253Z,97270.08
2019-04-30T09:37:18.881Z,97267.05
2019-04-30T09:39:46.267Z,97264.17
2019-04-30T09:42:13.792Z,97264.41
2019-04-30T09:44:41.301Z,97267.77
2019-04-30T09:47:09.001Z,97263.09
2019-04-30T09:49:36.243Z,97258.92
2019-04-30T09:52:03.711Z,97263.68
2019-04-30T09:54:31.483Z,97261.42
2019-04-30T09:56:59.058Z,97264.96
2019-04-30T09:59:26.257Z,97258.02
2019-04-30T10:01:53.744Z,97267.91
2019-04-30T10:04:21.689Z,97262.66
2019-04-30T10:06:50.133Z,97267.28
2019-04-30T10:09:16.243Z,97259.53
2019-04-30T10:11:55.497Z,97259.30
2019-04-30T10:14:23.022Z,97254.13
2019-04-30T10:17:07.080Z,97261.18
2019-04-30T10:19:34.604Z,97247.44
2019-04-30T10:22:02.161Z,97246.98
2019-04-30T10:24:29.678Z,97245.78
2019-04-30T10:26:57.163Z,97247.38
2019-04-30T10:29:24.772Z,97247.45
2019-04-30T10:31:52.227Z,97254.55
2019-04-30T10:34:19.688Z,97241.48
2019-04-30T10:36:49.419Z,97241.11
2019-04-30T10:39:14.625Z,97232.52
2019-04-30T10:41:42.317Z,97226.08
2019-04-30T10:44:09.798Z,97228.11
2019-04-30T10:46:38.132Z,97228.91
2019-04-30T10:49:05.659Z,97222.20
2019-04-30T10:51:33.127Z,97228.60
2019-04-30T10:54:00.588Z,97222.72
2019-04-30T10:56:29.130Z,97222.20
2019-04-30T10:58:55.620Z,97226.83
2019-04-30T11:01:23.142Z,97224.47
2019-04-30T11:03:50.630Z,97221.02
2019-04-30T11:06:19.202Z,97225.19
2019-04-30T11:08:45.713Z,97218.95
2019-04-30T11:11:12.767Z,97221.45
2019-04-30T11:13:39.821Z,97218.50
2019-04-30T11:16:14.634Z,97212.45
2019-04-30T11:18:34.217Z,97214.00
2019-04-30T11:21:01.650Z,97204.52
2019-04-30T11:23:29.594Z,97208.03
2019-04-30T11:25:56.615Z,97198.63
2019-04-30T11:28:23.938Z,97195.48
2019-04-30T11:30:50.326Z,97202.05
2019-04-30T11:33:17.470Z,97195.76
2019-04-30T11:35:44.351Z,97203.52
2019-04-30T11:38:11.351Z,97198.97
2019-04-30T11:40:39.897Z,97189.64
2019-04-30T11:43:05.961Z,97189.84
2019-04-30T11:45:48.705Z,97198.34
2019-04-30T11:48:15.700Z,97196.62
2019-04-30T11:50:42.710Z,97194.50
2019-04-30T11:53:22.608Z,97193.29
2019-04-30T11:55:36.885Z,97185.53
2019-04-30T11:58:03.952Z,97193.36
2019-04-30T12:00:31.001Z,97181.31
2019-04-30T12:02:59.330Z,97184.28
2019-04-30T12:05:25.237Z,97183.84
2019-04-30T12:07:53.018Z,97179.50
2019-04-30T12:10:36.328Z,97179.27
2019-04-30T12:13:03.368Z,97175.73
2019-04-30T12:15:30.393Z,97175.12
2019-04-30T12:17:57.852Z,97173.67
2019-04-30T12:20:25.327Z,97171.96
2019-04-30T12:22:52.897Z,97165.44
2019-04-30T12:25:20.338Z,97175.14
2019-04-30T12:27:48.799Z,97173.05
2019-04-30T12:30:15.383Z,97163.73
2019-04-30T12:32:42.867Z,97164.80
2019-04-30T12:35:11.031Z,97161.84
2019-04-30T12:37:39.128Z,97160.34
2019-04-30T12:40:06.873Z,97162.62
2019-04-30T12:42:34.343Z,97151.07
2019-04-30T12:45:01.877Z,97154.06
2019-04-30T12:47:29.626Z,97148.79
2019-04-30T12:50:00.924Z,97146.95
2019-04-30T12:52:24.883Z,97160.38
2019-04-30T12:54:52.328Z,97153.77
2019-04-30T12:57:22.505Z,97153.30
2019-04-30T12:59:49.992Z,97150.81
2019-04-30T13:02:19.149Z,97154.20
2019-04-30T13:04:45.842Z,97143.44
2019-04-30T13:07:13.894Z,97149.02
2019-04-30T13:09:41.478Z,97152.91
2019-04-30T13:12:10.383Z,97146.66
2019-04-30T13:14:50.600Z,97142.05
2019-04-30T13:17:03.444Z,97138.00
2019-04-30T13:19:31.078Z,97140.91
2019-04-30T13:21:58.788Z,97137.18
2019-04-30T13:24:26.342Z,97145.31
2019-04-30T13:26:53.752Z,97129.87
2019-04-30T13:32:27.880Z,97122.38
2019-04-30T13:34:46.817Z,97120.41
2019-04-30T13:37:14.326Z,97118.62
2019-04-30T13:39:56.701Z,97118.62
2019-04-30T13:42:26.328Z,97108.02
2019-04-30T13:44:53.785Z,97103.48
2019-04-30T13:47:21.444Z,97105.34
2019-04-30T13:49:49.518Z,97106.44
2019-04-30T13:52:16.469Z,97105.13
2019-04-30T13:54:43.989Z,97100.14
2019-04-30T13:57:11.467Z,97098.55
2019-04-30T13:59:38.594Z,97093.94
2019-04-30T14:02:05.694Z,97091.13
2019-04-30T14:04:37.231Z,97091.19
2019-04-30T14:07:15.134Z,97080.83
2019-04-30T14:09:42.618Z,97073.45
2019-04-30T14:12:09.741Z,97078.22
2019-04-30T14:14:39.414Z,97071.45
2019-04-30T14:17:04.719Z,97076.49
2019-04-30T14:19:31.756Z,97066.13
2019-04-30T14:21:59.298Z,97073.64
2019-04-30T14:24:26.318Z,97067.94
2019-04-30T14:26:53.338Z,97066.50
2019-04-30T14:29:20.369Z,97062.09
2019-04-30T14:31:48.785Z,97061.94
2019-04-30T14:34:15.015Z,97067.91
2019-04-30T14:36:42.664Z,97060.95
2019-04-30T14:39:14.471Z,97063.52
2019-04-30T14:41:39.569Z,97063.72
2019-04-30T14:44:04.310Z,97060.67
2019-04-30T14:46:36.744Z,97067.98
2019-04-30T14:49:15.299Z,97062.23
2019-04-30T14:51:40.521Z,97053.34
2019-04-30T14:54:10.020Z,97058.87
2019-04-30T14:56:51.989Z,97059.87
2019-04-30T14:59:25.013Z,97053.63
2019-04-30T15:01:53.918Z,97054.22
2019-04-30T15:04:20.974Z,97054.92
2019-04-30T15:06:48.735Z,97045.13
2019-04-30T15:09:15.558Z,97034.69
2019-04-30T15:11:43.019Z,97041.41
2019-04-30T15:14:10.020Z,97047.02
2019-04-30T15:16:37.020Z,97043.20
2019-04-30T15:19:04.075Z,97040.16
2019-04-30T15:21:31.540Z,97036.54
2019-04-30T15:24:05.151Z,97042.44
2019-04-30T15:26:32.217Z,97025.83
2019-04-30T15:29:00.086Z,97036.34
2019-04-30T15:31:26.272Z,97028.34
2019-04-30T15:34:02.810Z,97028.58
2019-04-30T15:36:25.920Z,97032.61
2019-04-30T15:39:05.702Z,97029.81
2019-04-30T15:41:32.759Z,97029.87
2019-04-30T15:43:59.770Z,97023.55
2019-04-30T15:46:26.877Z,97017.66
2019-04-30T15:48:54.437Z,97018.30
2019-04-30T15:51:21.521Z,97020.14
2019-04-30T15:53:49.160Z,97016.22
2019-04-30T15:56:16.230Z,97017.48
2019-04-30T15:58:49.321Z,97020.28
2019-04-30T16:01:14.830Z,97011.63
2019-04-30T16:03:45.246Z,97018.86
2019-04-30T16:06:12.703Z,97018.06
2019-04-30T16:08:45.740Z,97013.39
2019-04-30T16:11:13.894Z,97018.98
2019-04-30T16:16:40.579Z,97007.45
2019-04-30T16:19:09.150Z,97012.37
2019-04-30T16:21:36.082Z,97015.69
2019-04-30T16:24:03.629Z,97013.42
2019-04-30T16:26:31.144Z,97020.11
2019-04-30T16:28:58.723Z,97022.34
2019-04-30T16:31:26.215Z,97016.08
2019-04-30T16:33:53.922Z,97021.48
2019-04-30T16:36:21.459Z,97019.61
2019-04-30T16:38:48.921Z,97012.25
2019-04-30T16:41:28.491Z,97011.52
2019-04-30T16:43:44.178Z,97010.12
2019-04-30T16:46:11.487Z,97012.19
2019-04-30T16:48:38.969Z,97016.30
2019-04-30T16:51:06.029Z,97013.87
2019-04-30T16:53:33.520Z,97017.15
2019-04-30T16:56:01.014Z,97016.03
2019-04-30T16:58:29.085Z,97016.39
2019-04-30T17:00:56.238Z,97018.44
2019-04-30T17:03:28.844Z,97016.85
2019-04-30T17:06:00.523Z,97020.53
2019-04-30T17:08:29.045Z,97016.27
2019-04-30T17:10:55.086Z,97014.99
2019-04-30T17:13:23.090Z,97016.36
2019-04-30T17:15:51.140Z,97013.81
2019-04-30T17:18:19.072Z,97014.95
2019-04-30T17:20:46.369Z,97016.14
2019-04-30T17:23:13.822Z,97014.47
2019-04-30T17:25:41.323Z,97019.97
2019-04-30T17:28:09.152Z,97021.36
2019-04-30T17:30:36.425Z,97020.98
2019-04-30T17:33:04.069Z,97025.65
2019-04-30T17:35:31.521Z,97022.27
2019-04-30T17:37:59.167Z,97020.79
2019-04-30T17:40:26.152Z,97024.75
2019-04-30T17:42:53.207Z,97029.36
2019-04-30T17:45:20.252Z,97024.91
2019-04-30T17:47:47.277Z,97030.53
2019-04-30T17:50:14.305Z,97037.50
2019-04-30T17:52:41.855Z,97038.59
2019-04-30T17:55:09.829Z,97036.53
2019-04-30T17:57:36.870Z,97027.39
2019-04-30T18:00:16.058Z,97034.75
2019-04-30T18:02:32.847Z,97026.06
2019-04-30T18:05:00.297Z,97032.61
2019-04-30T18:07:29.529Z,97042.81
2019-04-30T18:09:55.335Z,97039.33
2019-04-30T18:12:22.782Z,97039.27
2019-04-30T18:14:50.234Z,97048.06
2019-04-30T18:17:17.815Z,97044.84
2019-04-30T18:19:55.201Z,97049.66
2019-04-30T18:22:29.356Z,97056.98
2019-04-30T18:27:49.494Z,97062.12
2019-04-30T18:30:15.525Z,97063.14
2019-04-30T18:32:43.034Z,97065.30
2019-04-30T18:35:10.579Z,97071.42
2019-04-30T18:37:38.710Z,97074.48
2019-04-30T18:40:05.591Z,97071.47
2019-04-30T18:42:33.137Z,97072.23
2019-04-30T18:45:00.617Z,97070.91
2019-04-30T18:47:28.094Z,97075.36
2019-04-30T18:49:55.670Z,97079.36
2019-04-30T18:52:23.119Z,97081.35
2019-04-30T18:54:50.572Z,97076.75
2019-04-30T18:57:18.028Z,97079.22
2019-04-30T18:59:45.595Z,97085.40
2019-04-30T19:02:13.063Z,97086.86
2019-04-30T19:04:40.955Z,97085.41
2019-04-30T19:07:10.862Z,97088.49
2019-04-30T19:09:40.173Z,97098.75
2019-04-30T19:12:08.535Z,97100.27
2019-04-30T19:14:39.489Z,97099.84
2019-04-30T19:17:25.166Z,97106.55
2019-04-30T19:19:55.287Z,97120.33
2019-04-30T19:22:22.795Z,97115.89
2019-04-30T19:24:56.133Z,97117.12
2019-04-30T19:27:18.632Z,97117.65
2019-04-30T19:29:45.211Z,97121.65
2019-04-30T19:32:12.694Z,97126.75
2019-04-30T19:34:40.150Z,97128.05
2019-04-30T19:37:08.652Z,97133.33
2019-04-30T19:39:35.161Z,97142.17
2019-04-30T19:42:02.638Z,97144.91
2019-04-30T19:44:30.148Z,97147.64
2019-04-30T19:46:58.561Z,97149.20
2019-04-30T19:49:25.067Z,97149.85
2019-04-30T19:52:05.346Z,97154.35
2019-04-30T19:54:20.048Z,97152.88
2019-04-30T19:56:47.502Z,97160.22
2019-04-30T19:59:15.005Z,97151.90
2019-04-30T20:01:42.482Z,97160.55
2019-04-30T20:04:09.956Z,97159.98
2019-04-30T20:06:38.591Z,97162.60
2019-04-30T20:09:04.939Z,97165.81
2019-04-30T20:11:32.526Z,97173.30
2019-04-30T20:14:00.064Z,97165.33
2019-04-30T20:16:27.538Z,97166.23
2019-04-30T20:18:55.003Z,97177.44
2019-04-30T20:21:28.364Z,97178.76
2019-04-30T20:23:49.942Z,97177.72
2019-04-30T20:26:17.384Z,97180.61
2019-04-30T20:28:44.830Z,97183.86
2019-04-30T20:31:12.294Z,97179.41
2019-04-30T20:33:39.760Z,97179.22
2019-04-30T20:36:09.032Z,97176.01
2019-04-30T20:38:44.639Z,97181.79
2019-04-30T20:41:12.151Z,97188.28
2019-04-30T20:43:39.606Z,97184.91
2019-04-30T20:46:08.621Z,97181.94
2019-04-30T20:48:35.100Z,97183.58
2019-04-30T20:51:02.555Z,97185.38
2019-04-30T20:53:30.058Z,97179.86
2019-04-30T20:55:59.260Z,97183.64
2019-04-30T20:58:25.008Z,97189.17
2019-04-30T21:01:00.997Z,97182.52
2019-04-30T21:03:19.957Z,97178.92
2019-04-30T21:05:47.523Z,97184.34
2019-04-30T21:08:14.991Z,97177.84
2019-04-30T21:10:42.483Z,97183.19
2019-04-30T21:13:11.263Z,97175.05
2019-04-30T21:15:39.435Z,97172.42
2019-04-30T21:18:04.935Z,97173.64
2019-04-30T21:20:32.446Z,97179.70
2019-04-30T21:22:59.914Z,97172.06
2019-04-30T21:25:28.965Z,97170.33
2019-04-30T21:27:54.871Z,97176.42
2019-04-30T21:30:22.338Z,97171.91
2019-04-30T21:33:00.679Z,97173.31
2019-04-30T21:35:31.988Z,97169.79
2019-04-30T21:38:01.613Z,97164.27
2019-04-30T21:40:27.129Z,97165.91
2019-04-30T21:42:54.595Z,97164.85
2019-04-30T21:45:22.047Z,97161.03
2019-04-30T21:47:56.449Z,97159.72
2019-04-30T21:50:19.560Z,97162.25
2019-04-30T21:52:45.322Z,97163.47
2019-04-30T21:55:12.802Z,97160.62
2019-04-30T21:57:41.358Z,97162.25
2019-04-30T22:00:09.547Z,97168.15
2019-04-30T22:02:38.350Z,97162.16
2019-04-30T22:05:05.449Z,97160.72
2019-04-30T22:07:32.902Z,97159.98
2019-04-30T22:10:00.381Z,97163.66
2019-04-30T22:12:28.436Z,97166.33
2019-04-30T22:14:55.350Z,97166.62
2019-04-30T22:17:22.836Z,97164.81
2019-04-30T22:19:51.714Z,97162.00
2019-04-30T22:22:19.283Z,97160.33
2019-04-30T22:24:45.441Z,97160.46
2019-04-30T22:27:13.149Z,97165.17
2019-04-30T22:29:42.248Z,97155.45
2019-04-30T22:32:09.366Z,97160.55
2019-04-30T22:34:35.638Z,97149.40
2019-04-30T22:37:03.106Z,97147.34
2019-04-30T22:39:32.006Z,97148.95
2019-04-30T22:42:00.322Z,97155.59
2019-04-30T22:44:27.756Z,97151.80
2019-04-30T22:46:55.360Z,97152.54
2019-04-30T22:49:22.810Z,97149.84
2019-04-30T22:51:50.270Z,97147.47
2019-04-30T22:54:17.748Z,97145.23
2019-04-30T22:56:45.223Z,97144.45
2019-04-30T22:59:12.688Z,97148.91
2019-04-30T23:01:55.075Z,97153.88
2019-04-30T23:04:37.413Z,97143.21
2019-04-30T23:07:04.875Z,97146.80
2019-04-30T23:09:32.343Z,97148.38
2019-04-30T23:11:59.804Z,97141.36
2019-04-30T23:14:27.327Z,97142.77
2019-04-30T23:16:54.810Z,97148.11
2019-04-30T23:19:22.258Z,97142.09
2019-04-30T23:21:49.722Z,97143.66
2019-04-30T23:24:17.176Z,97140.81
2019-04-30T23:26:44.631Z,97137.70
2019-04-30T23:29:12.092Z,97147.09
2019-04-30T23:31:39.548Z,97141.50
2019-04-30T23:34:17.379Z,97145.25
2019-04-30T23:36:34.587Z,97140.67
2019-04-30T23:39:02.123Z,97141.25
2019-04-30T23:41:29.770Z,97139.67
2019-04-30T23:43:57.209Z,97143.13
2019-04-30T23:46:24.663Z,97138.88
2019-04-30T23:48:52.145Z,97137.57
2019-04-30T23:51:19.608Z,97140.57
2019-04-30T23:53:47.084Z,97137.88
2019-04-30T23:56:14.601Z,97136.82
2019-04-30T23:58:42.070Z,97138.66
